Time;durP1;ratioP1;P1;durP2;ratioP2;P2;SDS_P1;SDS_P2;PMS_P1;PMS_P2;Temp;Humidity;BMP_temperature;BMP_pressure;BME280_temperature;BME280_humidity;BME280_pressure;Samples;Min_cycle;Max_cycle;Signal;HPM_P1;HPM_P2
2022/02/27 00:01:03;;;;;;;17.52;16.63;;;6.90;50.10;;;;;;4991820;28;20042;-83
2022/02/27 00:03:29;;;;;;;16.08;15.38;;;6.90;50.10;;;;;;4992526;28;20046;-83
2022/02/27 00:05:55;;;;;;;17.33;16.50;;;7.00;50.20;;;;;;4972614;28;20043;-83
2022/02/27 00:08:22;;;;;;;17.23;16.42;;;7.00;50.10;;;;;;4976403;28;20049;-83
2022/02/27 00:10:48;;;;;;;16.98;16.17;;;7.00;50.30;;;;;;5007321;28;20045;-83
2022/02/27 00:13:14;;;;;;;17.17;16.38;;;7.00;50.30;;;;;;4993622;28;20046;-83
2022/02/27 00:15:40;;;;;;;16.30;15.60;;;7.00;50.30;;;;;;5026167;28;20047;-83
2022/02/27 00:18:06;;;;;;;16.77;15.98;;;7.00;50.30;;;;;;4973567;28;20041;-82
2022/02/27 00:20:32;;;;;;;16.80;16.00;;;7.10;50.40;;;;;;4993492;28;20026;-83
2022/02/27 00:22:59;;;;;;;16.05;15.35;;;7.10;50.40;;;;;;5023746;28;20045;-83
2022/02/27 00:25:25;;;;;;;17.63;16.83;;;7.10;50.50;;;;;;4991703;28;20038;-83
2022/02/27 00:27:53;;;;;;;18.85;17.95;;;7.10;50.70;;;;;;4977671;28;20042;-82
2022/02/27 00:30:19;;;;;;;17.63;16.83;;;7.00;50.80;;;;;;4992621;28;20026;-83
2022/02/27 00:32:45;;;;;;;17.47;16.67;;;7.00;50.80;;;;;;4993248;28;20035;-83
2022/02/27 00:35:11;;;;;;;17.17;16.38;;;7.00;50.90;;;;;;5024606;28;20034;-83
2022/02/27 00:37:37;;;;;;;16.90;16.10;;;7.00;50.90;;;;;;4993406;28;20034;-83
2022/02/27 00:40:04;;;;;;;16.92;16.13;;;7.00;51.00;;;;;;4994316;28;20034;-82
2022/02/27 00:42:31;;;;;;;16.05;15.35;;;7.00;51.10;;;;;;4992239;28;20030;-83
2022/02/27 00:44:57;;;;;;;21.80;20.80;;;7.00;51.20;;;;;;5024063;28;20034;-83
2022/02/27 00:47:23;;;;;;;17.07;16.27;;;7.00;51.30;;;;;;4989093;28;20059;-83
2022/02/27 00:49:49;;;;;;;17.13;16.33;;;7.00;51.40;;;;;;5008347;28;20038;-83
2022/02/27 00:52:18;;;;;;;16.40;15.63;;;6.90;51.60;;;;;;5024139;28;20041;-84
2022/02/27 00:54:44;;;;;;;17.35;16.55;;;6.90;51.60;;;;;;4994074;28;20077;-83
2022/02/27 00:57:10;;;;;;;17.48;16.67;;;6.90;51.70;;;;;;4991281;28;20312;-84
2022/02/27 00:59:36;;;;;;;16.83;16.02;;;6.90;52.50;;;;;;4989443;28;20026;-83
2022/02/27 01:02:03;;;;;;;15.90;15.20;;;6.90;52.10;;;;;;4989149;28;20061;-83
2022/02/27 01:04:29;;;;;;;21.65;20.65;;;6.90;52.10;;;;;;5005796;28;20055;-83
2022/02/27 01:06:55;;;;;;;17.30;16.50;;;6.90;52.20;;;;;;5009024;28;20057;-83
2022/02/27 01:09:21;;;;;;;17.98;16.98;;;6.80;52.30;;;;;;4977070;28;20046;-83
2022/02/27 01:11:47;;;;;;;17.83;17.03;;;6.90;53.00;;;;;;5023887;28;20030;-83
2022/02/27 01:14:13;;;;;;;19.80;18.90;;;6.80;52.30;;;;;;4992070;28;20037;-83
2022/02/27 01:16:39;;;;;;;16.33;15.63;;;6.90;52.40;;;;;;4989055;28;20034;-83
2022/02/27 01:19:07;;;;;;;15.85;15.15;;;6.90;52.50;;;;;;4991556;28;20474;-83
2022/02/27 01:21:34;;;;;;;15.63;14.93;;;6.90;52.40;;;;;;4992477;28;20030;-83
2022/02/27 01:24:00;;;;;;;15.98;15.27;;;6.80;52.50;;;;;;4991764;28;20050;-81
2022/02/27 01:26:26;;;;;;;16.00;15.30;;;6.80;52.60;;;;;;4990557;28;20031;-83
2022/02/27 01:28:52;;;;;;;15.98;15.27;;;6.80;52.70;;;;;;4992023;28;20498;-83
2022/02/27 01:31:18;;;;;;;15.63;14.93;;;6.80;52.80;;;;;;5022470;28;20037;-82
2022/02/27 01:33:44;;;;;;;15.33;14.63;;;6.80;53.00;;;;;;4976445;28;20395;-83
2022/02/27 01:36:10;;;;;;;16.42;15.63;;;6.70;53.00;;;;;;4992075;28;20034;-83
2022/02/27 01:38:36;;;;;;;15.93;15.23;;;6.70;53.10;;;;;;5023463;28;20034;-83
2022/02/27 01:41:02;;;;;;;15.90;15.20;;;6.70;53.30;;;;;;4975425;28;20368;-83
2022/02/27 01:43:29;;;;;;;16.70;15.90;;;6.70;53.20;;;;;;5006404;28;20043;-82
2022/02/27 01:45:55;;;;;;;16.80;16.00;;;6.60;53.40;;;;;;4974713;28;20034;-83
2022/02/27 01:48:22;;;;;;;16.25;15.45;;;6.60;53.50;;;;;;4991799;28;20038;-83
2022/02/27 01:50:48;;;;;;;15.30;14.60;;;6.60;53.50;;;;;;4991631;28;20018;-83
2022/02/27 01:53:14;;;;;;;15.30;14.60;;;6.60;53.60;;;;;;4991705;28;20026;-82
2022/02/27 01:55:40;;;;;;;16.10;15.40;;;6.60;53.50;;;;;;5022703;28;20026;-83
2022/02/27 01:58:06;;;;;;;15.70;15.00;;;6.60;53.60;;;;;;4973869;28;20033;-83
2022/02/27 02:00:33;;;;;;;16.10;15.40;;;6.60;53.60;;;;;;4992286;28;20035;-83
2022/02/27 02:02:59;;;;;;;15.82;15.13;;;6.50;53.70;;;;;;4990189;28;20399;-83
2022/02/27 02:05:25;;;;;;;15.23;14.52;;;6.50;53.70;;;;;;5021608;28;20034;-83
2022/02/27 02:07:51;;;;;;;15.68;14.98;;;6.50;53.70;;;;;;4988540;28;20030;-84
2022/02/27 02:10:17;;;;;;;15.93;15.23;;;6.50;53.90;;;;;;4990030;28;20480;-83
2022/02/27 02:12:43;;;;;;;16.10;15.40;;;6.50;53.70;;;;;;4992014;28;20026;-83
2022/02/27 02:15:10;;;;;;;17.80;17.00;;;6.50;53.80;;;;;;5021184;28;20037;-83
2022/02/27 02:17:36;;;;;;;16.00;15.30;;;6.50;53.90;;;;;;4971539;28;20464;-83
2022/02/27 02:20:03;;;;;;;15.50;14.80;;;6.40;54.10;;;;;;4991208;28;20045;-82
2022/02/27 02:22:29;;;;;;;16.27;15.57;;;6.40;54.20;;;;;;5020417;28;20051;-82
2022/02/27 02:24:56;;;;;;;15.20;14.50;;;6.40;54.30;;;;;;4991177;28;20046;-82
2022/02/27 02:27:22;;;;;;;15.67;14.97;;;6.40;54.40;;;;;;4990365;28;20042;-83
2022/02/27 02:29:48;;;;;;;15.73;15.02;;;6.30;54.30;;;;;;4990717;28;20034;-83
2022/02/27 02:32:14;;;;;;;15.70;15.00;;;6.30;54.40;;;;;;5022367;28;20054;-84
2022/02/27 02:34:40;;;;;;;15.47;14.77;;;6.30;54.40;;;;;;4971908;28;20308;-81
2022/02/27 02:37:09;;;;;;;15.30;14.60;;;6.30;54.40;;;;;;4974164;28;20042;-82
2022/02/27 02:39:35;;;;;;;15.40;14.70;;;6.30;54.40;;;;;;4992758;28;20336;-82
2022/02/27 02:42:01;;;;;;;16.10;15.40;;;6.30;54.50;;;;;;5022643;28;20026;-82
2022/02/27 02:44:27;;;;;;;15.73;15.03;;;6.30;54.50;;;;;;4987653;28;20042;-82
2022/02/27 02:46:53;;;;;;;20.53;19.57;;;6.30;54.60;;;;;;5021442;28;20038;-82
2022/02/27 02:49:19;;;;;;;16.03;15.33;;;6.30;54.70;;;;;;5022086;28;20034;-81
2022/02/27 02:51:46;;;;;;;16.20;15.50;;;6.20;54.90;;;;;;4991380;28;20037;-82
2022/02/27 02:54:12;;;;;;;16.30;15.60;;;6.20;55.00;;;;;;4990562;28;20045;-81
2022/02/27 02:56:38;;;;;;;16.17;15.47;;;6.20;55.00;;;;;;4987490;28;20039;-82
2022/02/27 02:59:04;;;;;;;16.30;15.60;;;6.10;55.00;;;;;;5004161;28;20042;-82
2022/02/27 03:01:30;;;;;;;15.83;15.13;;;6.10;55.00;;;;;;4986915;28;20043;-82
2022/02/27 03:03:57;;;;;;;14.93;14.23;;;6.10;55.00;;;;;;4970411;28;20046;-82
2022/02/27 03:06:23;;;;;;;15.73;15.03;;;6.10;55.10;;;;;;4983534;28;20023;-82
2022/02/27 03:08:49;;;;;;;19.27;18.37;;;6.10;55.10;;;;;;4981179;28;20038;-81
2022/02/27 03:11:16;;;;;;;16.27;15.53;;;6.00;55.20;;;;;;4988214;28;20526;-82
2022/02/27 03:13:42;;;;;;;15.93;15.23;;;6.00;55.30;;;;;;5002099;28;20026;-82
2022/02/27 03:16:09;;;;;;;16.07;15.37;;;6.00;55.40;;;;;;4990568;28;20407;-81
2022/02/27 03:18:35;;;;;;;16.20;15.50;;;6.00;55.40;;;;;;5007348;28;20463;-81
2022/02/27 03:21:03;;;;;;;15.67;14.97;;;6.00;55.60;;;;;;4995264;28;20491;-81
2022/02/27 03:23:30;;;;;;;15.93;15.23;;;5.90;55.50;;;;;;4992243;28;20058;-82
2022/02/27 03:25:57;;;;;;;16.33;15.60;;;5.90;55.60;;;;;;4991200;28;20484;-82
2022/02/27 03:28:23;;;;;;;20.00;19.10;;;5.90;55.50;;;;;;4972198;28;20023;-81
2022/02/27 03:30:49;;;;;;;15.80;15.10;;;5.90;55.60;;;;;;4996751;28;20038;-82
2022/02/27 03:33:15;;;;;;;18.57;17.73;;;5.90;55.70;;;;;;4997966;28;20041;-81
2022/02/27 03:35:41;;;;;;;16.47;15.70;;;5.80;55.70;;;;;;4996182;28;20046;-82
2022/02/27 03:38:08;;;;;;;16.50;15.73;;;5.80;55.80;;;;;;4976573;28;20038;-81
2022/02/27 03:40:34;;;;;;;16.00;15.30;;;5.80;55.80;;;;;;4993730;28;20404;-82
2022/02/27 03:43:00;;;;;;;19.37;18.47;;;5.80;55.90;;;;;;4993765;28;20072;-82
2022/02/27 03:45:26;;;;;;;15.63;14.93;;;5.80;55.90;;;;;;4961431;28;20046;-81
2022/02/27 03:47:54;;;;;;;16.10;15.40;;;5.80;56.00;;;;;;5009574;28;20039;-82
2022/02/27 03:50:20;;;;;;;16.13;15.43;;;5.80;56.00;;;;;;4991006;28;20022;-78
2022/02/27 03:52:47;;;;;;;16.57;15.77;;;5.70;56.10;;;;;;5006440;28;20026;-79
2022/02/27 03:55:14;;;;;;;16.13;15.40;;;5.70;56.20;;;;;;4992570;28;20390;-80
2022/02/27 03:57:40;;;;;;;17.60;16.80;;;5.70;56.10;;;;;;4994017;28;20034;-81
2022/02/27 04:00:09;;;;;;;15.93;15.23;;;5.70;56.20;;;;;;5006721;28;20029;-85
2022/02/27 04:02:35;;;;;;;15.10;14.40;;;5.70;56.30;;;;;;5023302;28;20391;-85
2022/02/27 04:05:01;;;;;;;15.40;14.70;;;5.70;56.30;;;;;;4974489;28;20419;-84
2022/02/27 04:07:27;;;;;;;16.13;15.37;;;5.60;56.20;;;;;;4992279;28;20033;-83
2022/02/27 04:09:54;;;;;;;15.83;15.13;;;5.60;56.30;;;;;;4994282;28;20026;-84
2022/02/27 04:12:20;;;;;;;15.50;14.80;;;5.60;56.30;;;;;;4992545;28;20460;-83
2022/02/27 04:14:46;;;;;;;15.83;15.13;;;5.60;56.40;;;;;;4974611;28;20030;-84
2022/02/27 04:17:13;;;;;;;14.97;14.27;;;5.60;56.50;;;;;;5007606;28;20371;-84
2022/02/27 04:19:39;;;;;;;15.90;15.20;;;5.50;56.50;;;;;;4990619;28;20042;-83
2022/02/27 04:22:05;;;;;;;15.90;15.20;;;5.50;56.50;;;;;;4991954;28;20026;-83
2022/02/27 04:24:31;;;;;;;16.10;15.40;;;5.50;56.60;;;;;;4993108;28;20042;-82
2022/02/27 04:26:58;;;;;;;16.60;15.80;;;5.50;56.70;;;;;;5022588;28;20027;-83
2022/02/27 04:29:25;;;;;;;16.07;15.37;;;5.40;56.70;;;;;;5023627;28;20030;-82
2022/02/27 04:31:51;;;;;;;15.53;14.83;;;5.40;56.70;;;;;;4960514;28;20038;-83
2022/02/27 04:34:18;;;;;;;15.67;14.97;;;5.40;56.70;;;;;;4992213;28;20034;-83
2022/02/27 04:36:44;;;;;;;15.77;15.07;;;5.40;56.70;;;;;;4994401;28;20479;-83
2022/02/27 04:39:10;;;;;;;16.03;15.23;;;5.40;56.70;;;;;;5007873;28;20391;-83
2022/02/27 04:41:36;;;;;;;15.43;14.73;;;5.40;56.80;;;;;;4990535;28;20034;-84
2022/02/27 04:44:02;;;;;;;15.93;15.17;;;5.40;56.80;;;;;;5023923;28;20034;-84
2022/02/27 04:46:28;;;;;;;16.30;15.60;;;5.30;56.80;;;;;;4991431;28;20030;-85
2022/02/27 04:48:54;;;;;;;15.50;14.80;;;5.30;57.00;;;;;;4992975;28;20034;-82
2022/02/27 04:51:21;;;;;;;16.07;15.37;;;5.30;56.90;;;;;;4992569;28;20034;-83
2022/02/27 04:53:49;;;;;;;15.67;14.97;;;5.30;57.00;;;;;;4989656;28;20042;-81
2022/02/27 04:56:15;;;;;;;16.37;15.63;;;5.30;57.00;;;;;;5007105;28;20031;-83
2022/02/27 04:58:41;;;;;;;15.80;15.10;;;5.30;57.00;;;;;;4973800;28;20035;-83
2022/02/27 05:01:08;;;;;;;15.97;15.27;;;5.20;57.10;;;;;;4990713;28;20054;-84
2022/02/27 05:03:34;;;;;;;15.70;15.00;;;5.20;57.70;;;;;;4973296;28;20047;-83
2022/02/27 05:06:00;;;;;;;15.80;15.10;;;5.20;57.20;;;;;;4989615;28;20472;-85
2022/02/27 05:08:26;;;;;;;15.80;15.10;;;5.20;57.20;;;;;;4971724;28;20031;-85
2022/02/27 05:10:52;;;;;;;16.07;15.37;;;5.20;57.20;;;;;;4988038;28;20030;-85
2022/02/27 05:13:18;;;;;;;16.13;15.33;;;5.10;57.30;;;;;;5007422;28;20043;-85
2022/02/27 05:15:44;;;;;;;15.93;15.23;;;5.10;57.40;;;;;;4975853;28;20046;-85
2022/02/27 05:18:10;;;;;;;14.97;14.27;;;5.00;57.40;;;;;;4989743;28;20050;-83
2022/02/27 05:20:36;;;;;;;15.93;15.23;;;5.00;57.40;;;;;;5005452;28;20404;-83
2022/02/27 05:23:02;;;;;;;16.80;16.00;;;5.00;57.60;;;;;;4992030;28;20049;-84
2022/02/27 05:25:28;;;;;;;16.57;15.77;;;5.00;57.60;;;;;;5023984;28;20408;-82
2022/02/27 05:27:55;;;;;;;15.77;15.07;;;4.90;57.50;;;;;;4975833;28;20037;-82
2022/02/27 05:30:21;;;;;;;16.27;15.57;;;4.90;57.60;;;;;;4991628;28;20042;-83
2022/02/27 05:32:48;;;;;;;16.00;15.30;;;4.90;57.60;;;;;;4990485;28;20026;-83
2022/02/27 05:35:14;;;;;;;16.10;15.40;;;4.90;57.60;;;;;;5023417;28;20503;-83
2022/02/27 05:37:40;;;;;;;16.60;15.80;;;4.90;57.60;;;;;;4992314;28;20046;-83
2022/02/27 05:40:07;;;;;;;15.73;15.03;;;4.80;57.60;;;;;;4991077;28;20045;-83
2022/02/27 05:42:33;;;;;;;15.57;14.87;;;4.80;57.60;;;;;;4975607;28;20046;-82
2022/02/27 05:45:00;;;;;;;14.77;14.07;;;4.80;57.80;;;;;;4988325;28;20236;-83
2022/02/27 05:47:26;;;;;;;15.47;14.77;;;4.80;57.80;;;;;;5022502;28;20030;-82
2022/02/27 05:49:52;;;;;;;15.43;14.73;;;4.70;57.80;;;;;;4974495;28;20035;-82
2022/02/27 05:52:18;;;;;;;16.87;16.07;;;4.70;57.80;;;;;;4990042;28;20026;-82
2022/02/27 05:54:45;;;;;;;16.87;16.07;;;4.70;57.90;;;;;;4991876;28;20395;-82
2022/02/27 05:57:11;;;;;;;17.30;16.50;;;4.60;57.90;;;;;;5005614;28;20506;-83
2022/02/27 05:59:38;;;;;;;16.53;15.77;;;4.70;58.00;;;;;;4990097;28;20042;-82
2022/02/27 06:02:04;;;;;;;17.63;16.83;;;4.60;58.00;;;;;;5004879;28;20030;-82
2022/02/27 06:04:30;;;;;;;17.17;16.37;;;4.60;58.00;;;;;;5010636;28;20061;-82
2022/02/27 06:06:56;;;;;;;15.63;14.93;;;4.50;58.10;;;;;;5011132;28;20043;-82
2022/02/27 06:09:22;;;;;;;17.33;16.53;;;4.50;58.20;;;;;;5024380;28;20487;-83
2022/02/27 06:11:48;;;;;;;18.10;17.30;;;4.50;58.20;;;;;;5024459;28;20486;-82
2022/02/27 06:14:14;;;;;;;18.20;17.40;;;4.50;58.30;;;;;;4992943;28;20480;-83
2022/02/27 06:16:41;;;;;;;18.30;17.43;;;4.50;58.30;;;;;;4994652;28;20411;-82
2022/02/27 06:19:07;;;;;;;17.97;17.17;;;4.40;58.30;;;;;;4990869;28;20042;-83
2022/02/27 06:21:33;;;;;;;17.23;16.43;;;4.40;58.30;;;;;;4991095;28;20045;-82
2022/02/27 06:23:59;;;;;;;17.20;16.40;;;4.40;58.40;;;;;;4988369;28;20476;-82
2022/02/27 06:26:25;;;;;;;16.07;15.37;;;4.40;58.40;;;;;;4990747;28;20034;-82
2022/02/27 06:28:51;;;;;;;20.60;19.63;;;4.40;58.40;;;;;;4989792;28;20046;-82
2022/02/27 06:31:17;;;;;;;16.77;15.97;;;4.40;58.30;;;;;;4989445;28;20061;-82
2022/02/27 06:33:44;;;;;;;16.93;16.13;;;4.40;58.40;;;;;;4991244;28;20034;-82
2022/02/27 06:36:10;;;;;;;16.80;16.00;;;4.50;58.40;;;;;;4990759;28;20034;-82
2022/02/27 06:38:36;;;;;;;15.93;15.23;;;4.50;58.50;;;;;;5006334;28;20057;-82
2022/02/27 06:41:03;;;;;;;16.07;15.37;;;4.50;58.50;;;;;;4988452;28;20038;-82
2022/02/27 06:43:32;;;;;;;16.23;15.53;;;4.50;58.60;;;;;;5005813;28;20047;-82
2022/02/27 06:46:00;;;;;;;27.20;25.90;;;4.50;58.50;;;;;;4990454;28;20046;-82
2022/02/27 06:48:26;;;;;;;16.03;15.33;;;4.50;58.50;;;;;;4958943;28;20046;-82
2022/02/27 06:50:52;;;;;;;16.20;15.50;;;4.50;58.70;;;;;;4989276;28;20033;-82
2022/02/27 06:53:18;;;;;;;16.87;16.07;;;4.50;58.70;;;;;;5022395;28;20057;-82
2022/02/27 06:55:44;;;;;;;15.63;14.93;;;4.50;58.70;;;;;;4972148;28;20480;-82
2022/02/27 06:58:10;;;;;;;17.20;16.30;;;4.50;58.80;;;;;;4990844;28;20053;-82
2022/02/27 07:00:36;;;;;;;16.57;15.77;;;4.50;58.80;;;;;;5022881;28;20491;-82
2022/02/27 07:03:02;;;;;;;17.23;16.43;;;4.40;58.90;;;;;;5005783;28;20058;-82
2022/02/27 07:05:28;;;;;;;17.03;16.23;;;4.40;58.90;;;;;;4985106;28;20492;-80
2022/02/27 07:07:54;;;;;;;17.73;16.93;;;4.40;58.90;;;;;;4991214;28;20041;-82
2022/02/27 07:10:20;;;;;;;16.17;15.47;;;4.40;58.80;;;;;;4994970;28;20046;-84
2022/02/27 07:12:47;;;;;;;16.80;16.00;;;4.50;59.00;;;;;;4989051;28;20033;-82
2022/02/27 07:15:13;;;;;;;17.93;17.13;;;4.60;58.80;;;;;;4975649;28;20483;-83
2022/02/27 07:17:39;;;;;;;18.17;17.37;;;4.60;58.70;;;;;;4993283;28;20026;-83
2022/02/27 07:20:06;;;;;;;17.17;16.37;;;4.50;58.80;;;;;;4993844;28;20045;-83
2022/02/27 07:22:35;;;;;;;17.57;16.77;;;4.50;59.50;;;;;;4993787;28;20061;-82
2022/02/27 07:25:04;;;;;;;17.13;16.33;;;4.40;59.20;;;;;;4994640;28;20050;-85
2022/02/27 07:27:30;;;;;;;16.80;16.00;;;4.30;59.40;;;;;;5010071;28;20059;-82
2022/02/27 07:29:56;;;;;;;19.37;18.47;;;4.30;59.50;;;;;;4976169;28;20427;-83
2022/02/27 07:32:23;;;;;;;17.47;16.67;;;4.20;59.50;;;;;;4975179;28;20030;-81
2022/02/27 07:34:49;;;;;;;17.60;16.80;;;4.20;59.60;;;;;;4975506;28;20038;-85
2022/02/27 07:37:15;;;;;;;15.93;15.23;;;4.20;59.80;;;;;;4995539;28;20046;-90
2022/02/27 07:39:41;;;;;;;18.27;17.47;;;4.50;60.20;;;;;;5010969;28;20049;-89
2022/02/27 07:42:07;;;;;;;17.37;16.57;;;4.90;60.20;;;;;;4973789;28;20030;-83
2022/02/27 07:44:34;;;;;;;18.23;17.43;;;5.20;60.10;;;;;;4992357;28;20483;-84
2022/02/27 07:47:00;;;;;;;17.67;16.87;;;5.50;60.00;;;;;;4993529;28;20046;-86
2022/02/27 07:49:26;;;;;;;1999.90;999.90;;;5.70;60.00;;;;;;4992475;28;20030;-86
2022/02/27 07:51:53;;;;;;;1999.90;999.90;;;6.10;60.40;;;;;;4990825;28;20387;-87
2022/02/27 07:54:19;;;;;;;1999.90;999.90;;;6.40;60.50;;;;;;4992387;28;20031;-87
2022/02/27 07:56:45;;;;;;;1999.90;999.90;;;6.90;59.90;;;;;;4992330;28;20038;-82
2022/02/27 07:59:12;;;;;;;1999.90;999.90;;;7.50;59.20;;;;;;4992598;28;20045;-83
2022/02/27 08:01:38;;;;;;;1999.90;999.90;;;7.70;58.80;;;;;;4974594;28;20150;-83
2022/02/27 08:04:04;;;;;;;1999.90;999.90;;;8.00;58.60;;;;;;4976804;28;20408;-84
2022/02/27 08:06:32;;;;;;;1999.90;999.90;;;8.30;58.40;;;;;;4988990;28;20053;-83
2022/02/27 08:09:03;;;;;;;1999.90;999.90;;;8.50;58.10;;;;;;4976306;28;20031;-84
2022/02/27 08:11:29;;;;;;;1999.90;999.90;;;8.60;58.10;;;;;;4989006;28;20030;-85
2022/02/27 08:13:55;;;;;;;1999.90;999.90;;;8.70;58.00;;;;;;4992680;28;20038;-83
2022/02/27 08:16:21;;;;;;;1999.90;999.90;;;8.70;57.90;;;;;;4992081;28;20038;-85
2022/02/27 08:18:48;;;;;;;1999.90;999.90;;;8.70;58.10;;;;;;4993681;28;20042;-85
2022/02/27 08:21:14;;;;;;;1999.90;999.90;;;8.80;58.20;;;;;;4992220;28;20031;-84
2022/02/27 08:23:40;;;;;;;1999.90;999.90;;;8.80;57.80;;;;;;4991908;28;20050;-85
2022/02/27 08:26:06;;;;;;;1999.90;999.90;;;8.80;57.90;;;;;;4975719;28;20049;-87
2022/02/27 08:28:32;;;;;;;1999.90;999.90;;;8.60;57.70;;;;;;4959690;28;20487;-85
2022/02/27 08:30:59;;;;;;;1999.90;999.90;;;8.40;57.70;;;;;;4992334;28;20407;-85
2022/02/27 08:33:25;;;;;;;1999.90;999.90;;;8.30;57.80;;;;;;4992268;28;20028;-86
2022/02/27 08:35:51;;;;;;;1999.90;999.90;;;8.30;57.90;;;;;;4991951;28;20041;-83
2022/02/27 08:38:17;;;;;;;1999.90;999.90;;;8.40;57.80;;;;;;4990874;28;20045;-83
2022/02/27 08:40:44;;;;;;;1999.90;999.90;;;8.60;57.50;;;;;;4975529;28;20037;-81
2022/02/27 08:43:10;;;;;;;1999.90;999.90;;;8.60;57.30;;;;;;4975491;28;20042;-83
2022/02/27 08:45:36;;;;;;;1999.90;999.90;;;8.70;57.30;;;;;;4992039;28;20042;-83
2022/02/27 08:48:02;;;;;;;1999.90;999.90;;;8.90;57.10;;;;;;4990651;28;20038;-83
2022/02/27 08:50:28;;;;;;;1999.90;999.90;;;9.00;56.70;;;;;;4991031;28;20030;-83
2022/02/27 08:52:55;;;;;;;1999.90;999.90;;;9.00;56.40;;;;;;4992561;28;20097;-84
2022/02/27 08:55:22;;;;;;;1999.90;999.90;;;8.90;56.30;;;;;;4990864;28;20029;-83
2022/02/27 08:57:48;;;;;;;1999.90;999.90;;;8.90;56.30;;;;;;4992928;28;20043;-83
2022/02/27 09:00:15;;;;;;;1999.90;999.90;;;8.80;56.20;;;;;;5021119;28;20472;-84
2022/02/27 09:02:41;;;;;;;1999.90;999.90;;;8.80;56.30;;;;;;4974191;28;20034;-83
2022/02/27 09:05:08;;;;;;;1999.90;999.90;;;8.80;56.30;;;;;;4991283;28;20061;-82
2022/02/27 09:07:34;;;;;;;1999.90;999.90;;;8.90;56.20;;;;;;4993600;28;20030;-83
2022/02/27 09:10:00;;;;;;;1999.90;999.90;;;8.70;56.10;;;;;;4991765;28;20038;-83
2022/02/27 09:12:26;;;;;;;1999.90;999.90;;;8.60;56.30;;;;;;4992176;28;20403;-83
2022/02/27 09:14:52;;;;;;;1999.90;999.90;;;8.70;56.30;;;;;;4982909;28;20050;-81
2022/02/27 09:17:19;;;;;;;1999.90;999.90;;;8.80;56.20;;;;;;4987222;28;20046;-84
2022/02/27 09:19:46;;;;;;;1999.90;999.90;;;8.90;56.10;;;;;;4971324;28;20035;-82
2022/02/27 09:22:12;;;;;;;1999.90;999.90;;;9.10;56.00;;;;;;4991123;28;20046;-80
2022/02/27 09:24:38;;;;;;;1999.90;999.90;;;9.20;55.80;;;;;;4992730;28;20037;-82
2022/02/27 09:27:04;;;;;;;1999.90;999.90;;;9.30;55.60;;;;;;5023609;28;20216;-82
2022/02/27 09:29:30;;;;;;;1999.90;999.90;;;9.30;55.50;;;;;;4956791;28;20049;-81
2022/02/27 09:31:57;;;;;;;1999.90;999.90;;;9.30;55.50;;;;;;4991016;28;20038;-82
2022/02/27 09:34:24;;;;;;;1999.90;999.90;;;9.30;55.60;;;;;;4988370;28;20051;-82
2022/02/27 09:36:50;;;;;;;1999.90;999.90;;;9.30;56.20;;;;;;4991866;28;20034;-81
2022/02/27 09:39:17;;;;;;;1999.90;999.90;;;9.40;55.60;;;;;;4988930;28;20042;-80
2022/02/27 09:41:43;;;;;;;1999.90;999.90;;;9.70;55.40;;;;;;4984397;28;20030;-81
2022/02/27 09:44:09;;;;;;;1999.90;999.90;;;9.80;55.20;;;;;;4986514;28;20423;-81
2022/02/27 09:46:36;;;;;;;1999.90;999.90;;;10.00;55.00;;;;;;4988823;28;20122;-81
2022/02/27 09:49:03;;;;;;;1999.90;999.90;;;10.20;54.80;;;;;;4991314;28;20026;-81
2022/02/27 09:51:30;;;;;;;1999.90;999.90;;;10.20;54.60;;;;;;4987429;28;20490;-82
2022/02/27 09:53:56;;;;;;;1999.90;999.90;;;10.20;54.50;;;;;;4984971;28;20471;-81
2022/02/27 09:56:22;;;;;;;1999.90;999.90;;;10.20;54.60;;;;;;4983872;28;20057;-81
2022/02/27 09:58:49;;;;;;;1999.90;999.90;;;10.20;54.70;;;;;;4987954;28;20029;-84
2022/02/27 10:01:16;;;;;;;1999.90;999.90;;;10.40;54.50;;;;;;4991861;28;20038;-84
2022/02/27 10:03:43;;;;;;;1999.90;999.90;;;10.40;54.30;;;;;;4975472;28;20073;-83
2022/02/27 10:06:17;;;;;;;1999.90;999.90;;;10.40;54.30;;;;;;4985660;28;20523;-83
2022/02/27 10:08:55;;;;;;;1999.90;999.90;;;10.50;54.30;;;;;;4989130;28;20494;-84
2022/02/27 10:11:21;;;;;;;1999.90;999.90;;;10.70;54.20;;;;;;4989304;28;20050;-84
2022/02/27 10:13:51;;;;;;;1999.90;999.90;;;10.80;54.00;;;;;;4988676;28;20037;-84
2022/02/27 10:16:25;;;;;;;1999.90;999.90;;;11.00;54.40;;;;;;4991213;28;20419;-85
2022/02/27 10:18:54;;;;;;;1999.90;999.90;;;11.10;53.60;;;;;;4972707;28;20027;-84
2022/02/27 10:21:32;;;;;;;1999.90;999.90;;;11.30;53.50;;;;;;4988655;28;20057;-83
2022/02/27 10:24:03;;;;;;;1999.90;999.90;;;11.30;53.20;;;;;;4984216;28;20069;-83
2022/02/27 10:26:30;;;;;;;1999.90;999.90;;;11.30;53.20;;;;;;4970419;28;20062;-83
2022/02/27 10:29:16;;;;;;;1999.90;999.90;;;11.40;53.20;;;;;;4976741;28;20038;-84
2022/02/27 10:31:55;;;;;;;1999.90;999.90;;;11.40;53.10;;;;;;4986923;28;20034;-84
2022/02/27 10:34:28;;;;;;;1999.90;999.90;;;11.50;53.10;;;;;;4990530;28;20467;-84
2022/02/27 10:37:01;;;;;;;1999.90;999.90;;;11.50;53.10;;;;;;4992156;28;20038;-85
2022/02/27 10:39:44;;;;;;;1999.90;999.90;;;11.60;53.10;;;;;;4990944;28;20046;-86
2022/02/27 10:42:10;;;;;;;1999.90;999.90;;;11.70;52.90;;;;;;4959981;28;20042;-86
2022/02/27 10:44:54;;;;;;;1999.90;999.90;;;11.90;52.90;;;;;;4986847;28;20053;-85
2022/02/27 10:47:24;;;;;;;1999.90;999.90;;;12.00;52.70;;;;;;4985225;28;20047;-80
2022/02/27 10:49:52;;;;;;;1999.90;999.90;;;12.10;52.60;;;;;;4987160;28;20407;-82
2022/02/27 10:52:25;;;;;;;1999.90;999.90;;;12.20;52.50;;;;;;4984704;28;20500;-81
2022/02/27 10:54:55;;;;;;;1999.90;999.90;;;12.30;52.40;;;;;;4973899;28;20035;-81
2022/02/27 10:57:49;;;;;;;1999.90;999.90;;;12.40;52.30;;;;;;4977063;28;20054;-81
2022/02/27 11:00:19;;;;;;;1999.90;999.90;;;12.50;52.20;;;;;;4989173;28;20022;-81
2022/02/27 11:02:47;;;;;;;1999.90;999.90;;;12.60;52.10;;;;;;4989226;28;20030;-81
2022/02/27 11:05:14;;;;;;;1999.90;999.90;;;12.80;52.10;;;;;;4982879;28;20049;-81
2022/02/27 11:07:42;;;;;;;1999.90;999.90;;;13.00;51.90;;;;;;4975480;28;20061;-81
2022/02/27 11:10:11;;;;;;;1999.90;999.90;;;13.20;51.60;;;;;;4990742;28;20041;-81
2022/02/27 11:12:38;;;;;;;1999.90;999.90;;;13.40;51.40;;;;;;4968857;28;20042;-81
2022/02/27 11:15:08;;;;;;;1999.90;999.90;;;13.70;51.20;;;;;;4967777;28;20368;-81
2022/02/27 11:17:35;;;;;;;1999.90;999.90;;;13.80;51.10;;;;;;4971691;28;20391;-81
2022/02/27 11:20:02;;;;;;;1999.90;999.90;;;13.90;50.60;;;;;;4982571;28;20046;-81
2022/02/27 11:22:29;;;;;;;1999.90;999.90;;;13.90;50.50;;;;;;4988013;28;20058;-82
2022/02/27 11:24:58;;;;;;;1999.90;999.90;;;13.80;50.70;;;;;;4970732;28;20389;-81
2022/02/27 11:27:27;;;;;;;1999.90;999.90;;;13.90;50.80;;;;;;4972027;28;20042;-81
2022/02/27 11:29:55;;;;;;;1999.90;999.90;;;13.90;50.60;;;;;;4983224;28;20027;-81
2022/02/27 11:32:22;;;;;;;1999.90;999.90;;;14.00;50.60;;;;;;4981864;28;20503;-81
2022/02/27 11:34:48;;;;;;;1999.90;999.90;;;14.10;50.60;;;;;;4989649;28;20037;-81
2022/02/27 11:37:14;;;;;;;1999.90;999.90;;;14.20;50.60;;;;;;4989797;28;20391;-81
2022/02/27 11:42:50;;;;;;;1999.90;999.90;;;14.50;50.30;;;;;;4993021;28;20030;-81
2022/02/27 11:45:21;;;;;;;1999.90;999.90;;;14.60;50.10;;;;;;4973729;28;20053;-81
2022/02/27 11:47:49;;;;;;;1999.90;999.90;;;14.50;50.00;;;;;;4986839;28;20422;-81
2022/02/27 11:50:29;;;;;;;1999.90;999.90;;;14.50;50.10;;;;;;4987604;28;20038;-81
2022/02/27 11:52:55;;;;;;;1999.90;999.90;;;14.60;50.20;;;;;;4991614;28;20034;-81
2022/02/27 11:55:43;;;;;;;1999.90;999.90;;;14.60;50.10;;;;;;4993420;28;20027;-82
2022/02/27 11:58:36;;;;;;;1999.90;999.90;;;14.70;50.20;;;;;;4976159;28;20030;-81
2022/02/27 12:01:03;;;;;;;1999.90;999.90;;;15.00;50.00;;;;;;4990928;28;20061;-81
2022/02/27 12:03:29;;;;;;;1999.90;999.90;;;15.20;49.70;;;;;;4976931;28;20035;-81
2022/02/27 12:05:59;;;;;;;1999.90;999.90;;;15.40;49.50;;;;;;4990669;28;20399;-81
2022/02/27 12:08:39;;;;;;;1999.90;999.90;;;15.50;49.40;;;;;;4992224;28;20027;-81
2022/02/27 12:11:21;;;;;;;1999.90;999.90;;;15.60;49.30;;;;;;4965816;28;20043;-82
2022/02/27 12:13:54;;;;;;;1999.90;999.90;;;15.80;49.10;;;;;;4992725;28;20046;-81
2022/02/27 12:16:42;;;;;;;1999.90;999.90;;;16.00;49.10;;;;;;5002650;28;20034;-81
2022/02/27 12:19:27;;;;;;;1999.90;999.90;;;16.10;49.00;;;;;;4995468;28;20037;-81
2022/02/27 12:21:56;;;;;;;1999.90;999.90;;;16.20;48.90;;;;;;5010846;28;20044;-81
2022/02/27 12:24:26;;;;;;;1999.90;999.90;;;16.30;48.70;;;;;;5013328;28;20053;-81
2022/02/27 12:26:55;;;;;;;1999.90;999.90;;;16.40;48.70;;;;;;5010512;28;20065;-81